Time;durP1;ratioP1;P1;durP2;ratioP2;P2;SDS_P1;SDS_P2;PMS_P1;PMS_P2;Temp;Humidity;BMP_temperature;BMP_pressure;BME280_temperature;BME280_humidity;BME280_pressure;Samples;Min_cycle;Max_cycle;Signal;HPM_P1;HPM_P2
2022/08/04 00:01:20;;;;;;;7.70;1.58;;;15.10;99.90;;;;;;4978471;28;20475;-91
2022/08/04 00:04:00;;;;;;;11.32;2.15;;;15.10;99.90;;;;;;4977879;28;20038;-91
2022/08/04 00:06:37;;;;;;;6.10;1.65;;;15.10;99.90;;;;;;4962168;28;20030;-91
2022/08/04 00:09:10;;;;;;;5.00;1.30;;;15.00;99.90;;;;;;4977354;28;20042;-90
2022/08/04 00:11:42;;;;;;;5.22;1.40;;;15.00;99.90;;;;;;4977256;28;20037;-91
2022/08/04 00:14:15;;;;;;;5.47;1.42;;;15.00;99.90;;;;;;4980066;28;20154;-88
2022/08/04 00:16:42;;;;;;;10.23;2.30;;;14.90;99.90;;;;;;4978847;28;20030;-90
2022/08/04 00:19:26;;;;;;;11.05;1.60;;;14.90;99.90;;;;;;4977233;28;20031;-91
2022/08/04 00:21:58;;;;;;;7.32;1.67;;;14.90;99.90;;;;;;4978245;28;20106;-91
2022/08/04 00:24:28;;;;;;;10.65;1.60;;;14.90;99.90;;;;;;4977655;28;20030;-90
2022/08/04 00:26:54;;;;;;;5.75;1.67;;;14.80;99.90;;;;;;4977503;28;20030;-89
2022/08/04 00:29:21;;;;;;;8.73;1.80;;;14.80;99.90;;;;;;4976740;28;20114;-88
2022/08/04 00:31:48;;;;;;;9.80;1.88;;;14.70;99.90;;;;;;4977232;28;20030;-89
2022/08/04 00:34:14;;;;;;;9.38;1.80;;;14.60;99.90;;;;;;4996959;28;20030;-90
2022/08/04 00:36:42;;;;;;;4.38;1.48;;;14.60;99.90;;;;;;4999204;28;20030;-91
2022/08/04 00:39:11;;;;;;;6.32;1.60;;;14.60;99.90;;;;;;4982570;28;20031;-89
2022/08/04 00:42:03;;;;;;;7.50;1.60;;;14.50;99.90;;;;;;4983556;28;20095;-90
2022/08/04 00:44:41;;;;;;;8.27;1.95;;;14.50;99.90;;;;;;4984428;28;20046;-89
2022/08/04 00:47:27;;;;;;;15.55;2.63;;;14.50;99.90;;;;;;4983682;28;20062;-89
2022/08/04 00:49:59;;;;;;;8.70;1.73;;;14.50;99.90;;;;;;4981427;28;20068;-89
2022/08/04 00:52:39;;;;;;;6.95;2.28;;;14.40;99.90;;;;;;4981102;28;20499;-88
2022/08/04 00:55:17;;;;;;;10.00;1.63;;;14.40;99.90;;;;;;4978358;28;20100;-89
2022/08/04 00:58:01;;;;;;;4.63;1.88;;;14.40;99.90;;;;;;4978598;28;20026;-91
2022/08/04 01:00:36;;;;;;;8.95;1.80;;;14.30;99.90;;;;;;4978232;28;20097;-90
2022/08/04 01:03:17;;;;;;;5.20;2.03;;;14.30;99.90;;;;;;4978052;28;20030;-89
2022/08/04 01:06:00;;;;;;;8.80;1.52;;;14.30;99.90;;;;;;4995421;28;20089;-90
2022/08/04 01:08:44;;;;;;;4.10;1.50;;;14.20;99.90;;;;;;4977480;28;20114;-91
2022/08/04 01:11:38;;;;;;;8.50;1.98;;;14.20;99.90;;;;;;4977645;28;20045;-90
2022/08/04 01:14:31;;;;;;;4.53;1.60;;;14.10;99.90;;;;;;4977821;28;20034;-88
2022/08/04 01:17:06;;;;;;;4.18;1.40;;;14.10;99.90;;;;;;4977093;28;20635;-89
2022/08/04 01:19:47;;;;;;;5.68;1.55;;;14.00;99.90;;;;;;4977540;28;20424;-90
2022/08/04 01:23:05;;;;;;;5.88;1.48;;;14.00;99.90;;;;;;4977957;28;20073;-90
2022/08/04 01:25:45;;;;;;;8.98;1.92;;;13.90;99.90;;;;;;4940965;29;20485;-90
2022/08/04 01:28:31;;;;;;;7.53;1.60;;;13.80;99.90;;;;;;4941767;29;20046;-91
2022/08/04 01:31:13;;;;;;;11.68;1.48;;;13.80;99.90;;;;;;4941956;29;20043;-89
2022/08/04 01:33:43;;;;;;;8.80;1.70;;;13.70;99.90;;;;;;4941383;29;20460;-89
2022/08/04 01:36:10;;;;;;;5.85;1.85;;;13.70;99.90;;;;;;4940932;29;20043;-92
2022/08/04 01:38:39;;;;;;;3.88;1.60;;;13.70;99.90;;;;;;4941793;29;20030;-87
2022/08/04 01:41:08;;;;;;;7.38;2.10;;;13.60;99.90;;;;;;4941061;29;20038;-91
2022/08/04 01:43:40;;;;;;;4.32;2.33;;;13.60;99.90;;;;;;4957655;28;20493;-90
2022/08/04 01:46:11;;;;;;;4.82;1.85;;;13.60;99.90;;;;;;4941184;29;20216;-90
2022/08/04 01:48:43;;;;;;;;;;;13.60;99.90;;;;;;4941190;29;20665;-91
2022/08/04 01:51:10;;;;;;;5.32;1.60;;;13.60;99.90;;;;;;4940828;29;19913;-91
2022/08/04 01:53:41;;;;;;;8.55;2.00;;;13.50;99.90;;;;;;4941305;29;20027;-90
2022/08/04 01:56:09;;;;;;;6.78;2.03;;;13.40;99.90;;;;;;4941004;29;20142;-92
2022/08/04 01:58:37;;;;;;;6.30;1.98;;;13.40;99.90;;;;;;4941269;29;20067;-91
2022/08/04 02:01:08;;;;;;;5.68;1.70;;;13.30;99.90;;;;;;4962540;28;20125;-89
2022/08/04 02:03:39;;;;;;;8.52;2.00;;;13.20;99.90;;;;;;4980342;28;20031;-90
2022/08/04 02:06:27;;;;;;;6.03;1.80;;;13.20;99.90;;;;;;4980092;28;20030;-91
2022/08/04 02:09:35;;;;;;;10.18;2.17;;;13.20;99.90;;;;;;4980460;28;20550;-91
2022/08/04 02:12:12;;;;;;;6.75;1.77;;;13.20;99.90;;;;;;4973547;28;20030;-91
2022/08/04 02:14:48;;;;;;;11.35;1.73;;;13.20;99.90;;;;;;4981655;28;20039;-89
2022/08/04 02:17:26;;;;;;;7.97;1.67;;;13.10;99.90;;;;;;4979947;28;20085;-91
2022/08/04 02:20:08;;;;;;;5.72;1.80;;;13.10;99.90;;;;;;4980110;28;20034;-90
2022/08/04 02:22:51;;;;;;;9.70;2.03;;;13.10;99.90;;;;;;4979239;28;20510;-90
2022/08/04 02:25:23;;;;;;;8.95;3.05;;;13.00;99.90;;;;;;4979652;28;20026;-90
2022/08/04 02:27:57;;;;;;;6.53;1.77;;;13.00;99.90;;;;;;4979770;28;20023;-91
2022/08/04 02:30:32;;;;;;;6.25;2.10;;;13.00;99.90;;;;;;4979636;28;20022;-90
2022/08/04 02:33:02;;;;;;;5.35;1.63;;;13.00;99.90;;;;;;4980341;28;20034;-90
2022/08/04 02:35:31;;;;;;;6.83;1.70;;;12.90;99.90;;;;;;4979120;28;20069;-90
2022/08/04 02:38:11;;;;;;;7.68;1.80;;;12.90;99.90;;;;;;4979932;28;20026;-88
2022/08/04 02:40:40;;;;;;;7.85;1.92;;;12.80;99.90;;;;;;4979977;28;20062;-90
2022/08/04 02:43:08;;;;;;;6.93;2.20;;;12.70;99.90;;;;;;4997065;28;20042;-89
2022/08/04 02:45:36;;;;;;;4.60;1.80;;;12.60;99.90;;;;;;4997304;28;20026;-89
2022/08/04 02:48:03;;;;;;;7.47;2.15;;;12.60;99.90;;;;;;4997190;28;20025;-91
2022/08/04 02:50:33;;;;;;;4.82;2.10;;;12.60;99.90;;;;;;4980188;28;20034;-91
2022/08/04 02:53:01;;;;;;;4.47;1.85;;;12.60;99.90;;;;;;4982143;28;20496;-91
2022/08/04 02:55:29;;;;;;;8.00;1.85;;;12.50;99.90;;;;;;4983050;28;20046;-91
2022/08/04 02:57:58;;;;;;;6.40;1.70;;;12.60;99.90;;;;;;4996509;28;20022;-91
2022/08/04 03:00:25;;;;;;;7.47;2.90;;;12.50;99.90;;;;;;5018187;28;20026;-89
2022/08/04 03:03:00;;;;;;;4.65;1.92;;;12.50;99.90;;;;;;5002040;28;20022;-90
2022/08/04 03:05:43;;;;;;;4.78;2.00;;;12.50;99.90;;;;;;4991452;28;20057;-91
2022/08/04 03:08:22;;;;;;;4.55;2.00;;;12.50;99.90;;;;;;4981220;28;20026;-91
2022/08/04 03:10:58;;;;;;;6.43;1.92;;;12.40;99.90;;;;;;4990555;28;20026;-91
2022/08/04 03:13:47;;;;;;;8.32;2.28;;;12.40;99.90;;;;;;4983213;28;20026;-90
2022/08/04 03:16:31;;;;;;;5.88;2.03;;;12.40;99.90;;;;;;4974070;28;20547;-92
2022/08/04 03:19:30;;;;;;;7.35;3.00;;;12.40;99.90;;;;;;4979799;28;20031;-91
2022/08/04 03:22:35;;;;;;;9.15;2.20;;;12.30;99.90;;;;;;4979441;28;20066;-89
2022/08/04 03:25:23;;;;;;;7.30;2.13;;;12.40;99.90;;;;;;4979158;28;20038;-90
2022/08/04 03:27:48;;;;;;;5.88;2.38;;;12.40;99.90;;;;;;4979593;28;20026;-91
2022/08/04 03:30:52;;;;;;;8.65;2.38;;;12.40;99.90;;;;;;4979048;28;20026;-90
2022/08/04 03:33:42;;;;;;;5.97;2.17;;;12.40;99.90;;;;;;4973015;28;20124;-91
2022/08/04 03:36:42;;;;;;;9.18;2.22;;;12.50;99.90;;;;;;4979242;28;20038;-90
2022/08/04 03:39:26;;;;;;;6.80;2.10;;;12.50;99.90;;;;;;4996149;28;20030;-90
2022/08/04 03:42:06;;;;;;;5.57;1.90;;;12.50;99.90;;;;;;4978836;28;20034;-89
2022/08/04 03:45:06;;;;;;;8.97;2.80;;;12.50;99.90;;;;;;4995716;28;20042;-89
2022/08/04 03:48:06;;;;;;;6.10;2.13;;;12.50;99.90;;;;;;4977387;28;20858;-90
2022/08/04 03:53:58;;;;;;;5.10;1.90;;;12.60;99.90;;;;;;4995951;28;20073;-91
2022/08/04 03:56:33;;;;;;;5.68;1.70;;;12.60;99.90;;;;;;4981408;28;20125;-91
2022/08/04 03:59:40;;;;;;;4.25;1.95;;;12.50;99.90;;;;;;4983069;28;20034;-90
2022/08/04 04:02:21;;;;;;;4.75;1.77;;;12.50;99.90;;;;;;4977985;28;20080;-90
2022/08/04 04:05:22;;;;;;;6.35;2.30;;;12.50;99.90;;;;;;4978714;28;20053;-90
2022/08/04 04:08:15;;;;;;;8.48;2.38;;;12.50;99.90;;;;;;4978264;28;20026;-89
2022/08/04 04:11:14;;;;;;;10.07;2.42;;;12.50;99.90;;;;;;5002235;28;20037;-90
2022/08/04 04:13:50;;;;;;;5.25;2.30;;;12.50;99.90;;;;;;4978681;28;20041;-89
2022/08/04 04:16:31;;;;;;;6.57;2.30;;;12.60;99.90;;;;;;4979404;28;20035;-90
2022/08/04 04:19:13;;;;;;;6.97;1.90;;;12.60;99.90;;;;;;4995369;28;20076;-90
2022/08/04 04:21:48;;;;;;;9.60;2.30;;;12.60;99.90;;;;;;4988216;28;20062;-91
2022/08/04 04:24:19;;;;;;;5.10;1.73;;;12.60;99.90;;;;;;4990903;28;20085;-89
2022/08/04 04:26:58;;;;;;;4.07;1.95;;;12.60;99.90;;;;;;4990578;28;20089;-90
2022/08/04 04:29:28;;;;;;;4.72;1.77;;;12.60;99.90;;;;;;4989948;28;20058;-89
2022/08/04 04:32:21;;;;;;;8.68;2.30;;;12.60;99.90;;;;;;4987555;28;20101;-90
2022/08/04 04:34:46;;;;;;;5.57;1.85;;;12.60;99.90;;;;;;4986572;28;20053;-91
2022/08/04 04:37:49;;;;;;;8.30;2.00;;;12.60;99.90;;;;;;4985969;28;20046;-89
2022/08/04 04:40:30;;;;;;;9.25;2.38;;;12.60;99.90;;;;;;4985194;28;20026;-90
2022/08/04 04:43:22;;;;;;;5.30;2.28;;;12.60;99.90;;;;;;4982066;28;20046;-90
2022/08/04 04:46:05;;;;;;;4.85;2.00;;;12.60;99.90;;;;;;4981343;28;20030;-89
2022/08/04 04:48:50;;;;;;;4.22;2.13;;;12.60;99.90;;;;;;4983098;28;20030;-89
2022/08/04 04:51:15;;;;;;;7.60;2.28;;;12.70;99.90;;;;;;4979895;28;20037;-90
2022/08/04 04:53:54;;;;;;;7.50;2.20;;;12.70;99.90;;;;;;4980004;28;20034;-89
2022/08/04 04:56:44;;;;;;;5.30;1.90;;;12.80;99.90;;;;;;4979896;28;20044;-90
2022/08/04 04:59:14;;;;;;;6.85;2.20;;;12.80;99.90;;;;;;4983468;28;20089;-88
2022/08/04 05:01:49;;;;;;;5.72;2.28;;;12.90;99.90;;;;;;5000942;28;20026;-91
2022/08/04 05:04:28;;;;;;;8.95;3.30;;;13.00;99.90;;;;;;4983826;28;20368;-90
2022/08/04 05:07:17;;;;;;;7.88;3.38;;;13.00;99.90;;;;;;4983959;28;20030;-91
2022/08/04 05:10:05;;;;;;;6.45;3.45;;;13.10;99.90;;;;;;5000916;28;20039;-91
2022/08/04 05:12:40;;;;;;;6.35;3.25;;;13.20;99.90;;;;;;4983477;28;20030;-90
2022/08/04 05:15:09;;;;;;;8.25;3.08;;;13.30;99.90;;;;;;4982555;28;20518;-90
2022/08/04 05:17:39;;;;;;;6.75;2.95;;;13.40;99.90;;;;;;4999705;28;20041;-90
2022/08/04 05:20:18;;;;;;;7.97;2.28;;;13.50;99.90;;;;;;4981387;28;20027;-91
2022/08/04 05:22:54;;;;;;;6.60;2.63;;;13.60;99.90;;;;;;4981161;28;20458;-91
2022/08/04 05:25:43;;;;;;;4.75;2.08;;;13.60;99.90;;;;;;4981414;28;20033;-90
2022/08/04 05:28:14;;;;;;;8.77;1.85;;;13.70;99.90;;;;;;4981511;28;20121;-90
2022/08/04 05:30:48;;;;;;;3.50;1.63;;;13.70;99.90;;;;;;4981455;28;20031;-91
2022/08/04 05:33:46;;;;;;;5.18;2.05;;;13.70;99.90;;;;;;4981502;28;20514;-89
2022/08/04 05:36:16;;;;;;;4.05;1.80;;;13.70;99.90;;;;;;4957215;28;20046;-90
2022/08/04 05:38:44;;;;;;;10.13;3.63;;;13.70;99.90;;;;;;4981862;28;20042;-89
2022/08/04 05:41:11;;;;;;;3.92;1.55;;;13.80;99.90;;;;;;4982060;28;20128;-89
2022/08/04 05:43:41;;;;;;;6.93;1.70;;;13.80;99.90;;;;;;4981475;28;20186;-89
2022/08/04 05:46:09;;;;;;;6.05;2.28;;;13.80;99.90;;;;;;4981741;28;20027;-89
2022/08/04 05:48:36;;;;;;;6.45;2.35;;;13.90;99.90;;;;;;4981126;28;20041;-90
2022/08/04 05:51:04;;;;;;;3.08;1.30;;;13.90;99.90;;;;;;4981060;28;20026;-89
2022/08/04 05:53:31;;;;;;;4.70;1.90;;;14.00;99.90;;;;;;4980972;28;20034;-90
2022/08/04 05:56:00;;;;;;;4.45;2.17;;;14.00;99.90;;;;;;4980749;28;20066;-90
2022/08/04 05:58:29;;;;;;;9.07;1.77;;;14.10;99.90;;;;;;4981206;28;20065;-91
2022/08/04 06:00:58;;;;;;;3.60;1.52;;;14.20;99.90;;;;;;4980972;28;20030;-90
2022/08/04 06:03:26;;;;;;;5.57;1.70;;;14.20;99.90;;;;;;4980800;28;20029;-90
2022/08/04 06:05:53;;;;;;;6.85;1.30;;;14.30;99.90;;;;;;4980894;28;20034;-89
2022/08/04 06:08:19;;;;;;;3.20;1.50;;;14.30;99.90;;;;;;4981286;28;20691;-88
2022/08/04 06:10:46;;;;;;;2.13;1.40;;;14.40;99.90;;;;;;4988303;28;20031;-90
2022/08/04 06:13:16;;;;;;;5.07;1.48;;;14.40;99.90;;;;;;4980237;28;20026;-91
2022/08/04 06:15:47;;;;;;;4.13;1.38;;;14.50;99.90;;;;;;4997989;28;20030;-91
2022/08/04 06:18:13;;;;;;;4.00;1.20;;;14.50;99.90;;;;;;4980698;28;20022;-91
2022/08/04 06:20:42;;;;;;;3.38;1.20;;;14.60;99.90;;;;;;4971218;28;20035;-91
2022/08/04 06:23:13;;;;;;;5.38;1.20;;;14.60;99.90;;;;;;4992128;28;20026;-91
2022/08/04 06:25:45;;;;;;;;;;;14.60;99.90;;;;;;4970415;28;20023;-90
2022/08/04 06:28:12;;;;;;;3.58;1.70;;;14.70;99.90;;;;;;4987013;28;19949;-91
2022/08/04 06:30:39;;;;;;;4.80;1.52;;;14.70;99.90;;;;;;4966476;28;20026;-91
2022/08/04 06:33:23;;;;;;;4.40;1.50;;;14.70;99.90;;;;;;4979621;28;20029;-92
2022/08/04 06:35:54;;;;;;;3.60;1.00;;;14.70;99.90;;;;;;4980360;28;20042;-90
2022/08/04 06:38:22;;;;;;;3.95;1.30;;;14.80;99.90;;;;;;4980035;28;20031;-90
2022/08/04 06:40:48;;;;;;;4.90;1.40;;;14.80;99.90;;;;;;4981974;28;20137;-89
2022/08/04 06:43:14;;;;;;;5.25;1.20;;;14.90;99.90;;;;;;4980801;28;20054;-91
2022/08/04 06:45:42;;;;;;;3.35;0.93;;;14.90;99.90;;;;;;4980041;28;20026;-87
2022/08/04 06:48:13;;;;;;;5.32;1.55;;;15.00;99.90;;;;;;5014828;28;20025;-91
2022/08/04 06:50:40;;;;;;;6.85;1.77;;;15.00;99.90;;;;;;5000421;28;20076;-91
2022/08/04 06:53:06;;;;;;;4.03;1.00;;;15.10;99.90;;;;;;4979688;28;20050;-90
2022/08/04 06:55:33;;;;;;;6.03;1.27;;;15.10;99.90;;;;;;4999511;28;20085;-92
2022/08/04 06:58:01;;;;;;;2.10;1.13;;;15.20;99.90;;;;;;4991846;28;20027;-91
2022/08/04 07:00:28;;;;;;;2.58;0.90;;;15.30;99.90;;;;;;5008108;28;20563;-90
2022/08/04 07:02:54;;;;;;;4.72;1.15;;;15.30;99.90;;;;;;4991158;28;20046;-89
2022/08/04 07:05:21;;;;;;;2.95;0.90;;;15.30;99.90;;;;;;4993718;28;20034;-91
2022/08/04 07:07:47;;;;;;;3.38;0.88;;;15.40;99.90;;;;;;4991005;28;20090;-90
2022/08/04 07:10:14;;;;;;;4.53;1.20;;;15.30;99.90;;;;;;4993905;28;20030;-90
2022/08/04 07:12:40;;;;;;;4.50;1.00;;;15.40;99.90;;;;;;4980513;28;20022;-93
2022/08/04 07:15:07;;;;;;;2.78;1.00;;;15.50;99.90;;;;;;4981413;28;20026;-90
2022/08/04 07:17:35;;;;;;;3.38;1.17;;;15.50;99.90;;;;;;4979833;28;20030;-93
2022/08/04 07:20:03;;;;;;;6.25;1.20;;;15.50;99.90;;;;;;4972566;28;20042;-92
2022/08/04 07:22:29;;;;;;;5.30;0.90;;;15.60;99.90;;;;;;4990630;28;20030;-91
2022/08/04 07:24:58;;;;;;;6.68;0.98;;;15.60;99.90;;;;;;4991446;28;20065;-92
2022/08/04 07:27:25;;;;;;;3.20;0.70;;;15.70;99.90;;;;;;4992976;28;20049;-92
2022/08/04 07:29:52;;;;;;;4.15;0.90;;;15.70;99.90;;;;;;5010207;28;20050;-92
2022/08/04 07:32:21;;;;;;;4.88;0.70;;;15.80;99.90;;;;;;4991602;28;20027;-92
2022/08/04 07:34:49;;;;;;;3.60;0.90;;;15.70;99.90;;;;;;4988281;28;20070;-92
2022/08/04 07:37:15;;;;;;;5.32;0.85;;;15.70;99.90;;;;;;5007908;28;20045;-92
2022/08/04 07:39:41;;;;;;;2.70;0.63;;;15.70;99.90;;;;;;4988598;28;20041;-90
2022/08/04 07:42:07;;;;;;;5.00;0.85;;;15.70;99.90;;;;;;5004058;28;20047;-91
2022/08/04 07:44:36;;;;;;;6.57;0.88;;;15.70;99.90;;;;;;4987168;28;20041;-91
2022/08/04 07:47:05;;;;;;;2.65;0.90;;;15.80;99.90;;;;;;4987723;28;20042;-92
2022/08/04 07:49:31;;;;;;;2.60;0.60;;;15.80;99.90;;;;;;4989197;28;20026;-92
2022/08/04 07:51:58;;;;;;;3.80;1.13;;;15.90;99.90;;;;;;4988657;28;20029;-91
2022/08/04 07:54:24;;;;;;;4.53;0.88;;;15.90;99.90;;;;;;4989175;28;20030;-90
2022/08/04 07:56:51;;;;;;;2.85;0.77;;;16.00;99.90;;;;;;5007098;28;20030;-91
2022/08/04 07:59:20;;;;;;;5.15;1.00;;;16.10;99.90;;;;;;4990055;28;20031;-90
2022/08/04 08:01:47;;;;;;;4.85;0.90;;;16.10;99.90;;;;;;4991462;28;20090;-88
2022/08/04 08:04:14;;;;;;;4.05;0.70;;;16.10;99.90;;;;;;4992141;28;20027;-91
2022/08/04 08:06:41;;;;;;;2.88;1.02;;;16.20;99.90;;;;;;5010347;28;20027;-92
2022/08/04 08:09:12;;;;;;;4.55;0.95;;;16.20;99.90;;;;;;4992692;28;20023;-91
2022/08/04 08:11:39;;;;;;;2.83;0.85;;;16.10;99.90;;;;;;5009757;28;20015;-92
2022/08/04 08:14:07;;;;;;;5.85;1.30;;;16.10;99.90;;;;;;4990292;28;20046;-91
2022/08/04 08:16:34;;;;;;;3.75;0.80;;;16.10;99.90;;;;;;5004442;28;20090;-90
2022/08/04 08:19:01;;;;;;;4.82;0.93;;;16.10;99.90;;;;;;4984190;28;20026;-90
2022/08/04 08:21:27;;;;;;;5.93;0.82;;;16.20;99.90;;;;;;5001822;28;20056;-92
2022/08/04 08:23:53;;;;;;;3.88;1.50;;;16.20;99.90;;;;;;4983086;28;20035;-92
2022/08/04 08:26:18;;;;;;;8.45;1.13;;;16.20;99.90;;;;;;4982570;28;20031;-91
2022/08/04 08:28:44;;;;;;;10.50;1.20;;;16.30;99.90;;;;;;4999735;28;20408;-91
2022/08/04 08:31:10;;;;;;;3.72;0.88;;;16.40;99.90;;;;;;4983989;28;20038;-91
2022/08/04 08:33:36;;;;;;;26.33;2.35;;;16.40;99.90;;;;;;5000509;28;20023;-89
2022/08/04 08:36:24;;;;;;;4.68;0.98;;;16.50;99.90;;;;;;4983812;28;20559;-89
2022/08/04 08:39:21;;;;;;;3.22;0.80;;;16.50;99.70;;;;;;4979514;28;20049;-91
2022/08/04 08:41:49;;;;;;;6.47;1.27;;;16.60;99.00;;;;;;4987185;28;20084;-91
2022/08/04 08:44:49;;;;;;;4.43;1.10;;;16.80;98.80;;;;;;4981461;28;20034;-89
2022/08/04 08:47:53;;;;;;;6.07;1.20;;;16.90;98.00;;;;;;5010224;28;20029;-90
2022/08/04 08:50:34;;;;;;;4.95;0.68;;;17.00;97.20;;;;;;4933176;29;20052;-90
2022/08/04 08:53:17;;;;;;;1.95;0.82;;;17.10;95.90;;;;;;4918657;29;20212;-91
2022/08/04 08:56:11;;;;;;;5.60;0.80;;;17.20;95.30;;;;;;4909529;29;20043;-88
2022/08/04 08:58:49;;;;;;;6.32;1.30;;;17.30;94.10;;;;;;4923189;29;20063;-91
2022/08/04 09:01:32;;;;;;;3.90;0.68;;;17.30;93.50;;;;;;4897399;29;20024;-92
2022/08/04 09:04:17;;;;;;;9.23;1.05;;;17.40;92.50;;;;;;4928185;29;20056;-85
2022/08/04 09:07:10;;;;;;;4.30;1.35;;;17.40;91.80;;;;;;4913550;29;20032;-90
2022/08/04 09:10:14;;;;;;;9.65;1.20;;;17.40;90.60;;;;;;4899614;29;20056;-90
2022/08/04 09:12:54;;;;;;;7.93;1.00;;;17.50;90.20;;;;;;4912903;29;20036;-91
2022/08/04 09:15:38;;;;;;;5.45;1.00;;;17.60;90.30;;;;;;4894712;29;20119;-91
2022/08/04 09:18:22;;;;;;;4.05;0.80;;;17.70;89.60;;;;;;4892622;29;20093;-92
2022/08/04 09:20:55;;;;;;;4.03;0.80;;;17.80;88.10;;;;;;4906902;29;20025;-90
2022/08/04 09:23:54;;;;;;;6.68;1.10;;;17.90;86.40;;;;;;4913175;28;20510;-90
2022/08/04 09:26:30;;;;;;;3.50;0.85;;;18.00;86.60;;;;;;4969503;28;20117;-90
2022/08/04 09:29:11;;;;;;;3.35;0.70;;;18.10;86.50;;;;;;4995474;28;20117;-92
2022/08/04 09:32:15;;;;;;;3.55;0.90;;;18.20;86.30;;;;;;4995575;28;20089;-92
2022/08/04 09:35:05;;;;;;;3.63;1.10;;;18.40;85.80;;;;;;4972742;28;20026;-93
2022/08/04 09:37:49;;;;;;;2.83;0.60;;;18.50;84.10;;;;;;4993445;28;20053;-93
2022/08/04 09:40:15;;;;;;;4.03;0.70;;;18.60;82.70;;;;;;4993940;28;20014;-90
2022/08/04 09:43:09;;;;;;;2.60;0.68;;;18.70;81.80;;;;;;4976406;28;20575;-91
2022/08/04 09:46:16;;;;;;;4.68;0.85;;;18.70;80.50;;;;;;4936444;28;20053;-91
2022/08/04 09:48:52;;;;;;;2.53;1.08;;;18.80;81.10;;;;;;4879556;29;20421;-93
2022/08/04 09:51:28;;;;;;;2.83;0.55;;;18.90;80.90;;;;;;4863912;29;20071;-93
2022/08/04 09:54:18;;;;;;;10.15;0.90;;;19.10;80.40;;;;;;4886342;29;20037;-94
2022/08/04 09:57:10;;;;;;;4.22;0.50;;;19.10;79.50;;;;;;4886202;29;20418;-91
2022/08/04 09:59:51;;;;;;;0.68;0.50;;;19.30;78.60;;;;;;4876145;29;20036;-89
2022/08/04 10:02:22;;;;;;;3.70;0.50;;;19.30;76.60;;;;;;4867148;29;20036;-92
2022/08/04 10:04:49;;;;;;;3.35;0.63;;;19.50;75.60;;;;;;4882187;29;20061;-92
2022/08/04 10:07:30;;;;;;;1.80;0.60;;;19.50;75.00;;;;;;4865891;29;20037;-90
2022/08/04 10:10:16;;;;;;;3.47;0.63;;;19.40;75.20;;;;;;4879263;29;20029;-91
2022/08/04 10:13:08;;;;;;;2.78;0.60;;;19.40;74.90;;;;;;4879101;29;20185;-90
2022/08/04 10:15:47;;;;;;;2.55;0.57;;;19.50;75.00;;;;;;4865520;29;20053;-92
2022/08/04 10:18:35;;;;;;;3.10;0.55;;;19.60;74.40;;;;;;4879764;29;20178;-92
2022/08/04 10:21:07;;;;;;;1.25;0.60;;;19.60;73.60;;;;;;4873803;29;20034;-93
2022/08/04 10:23:43;;;;;;;4.28;0.95;;;19.60;73.80;;;;;;4981060;28;20030;-92
2022/08/04 10:26:33;;;;;;;4.22;0.85;;;19.50;74.10;;;;;;4995535;28;20014;-93
2022/08/04 10:29:09;;;;;;;2.20;0.52;;;19.50;74.70;;;;;;4981145;28;20049;-92
2022/08/04 10:31:42;;;;;;;1.63;0.60;;;19.40;74.70;;;;;;4983119;28;20158;-92
2022/08/04 10:34:13;;;;;;;4.47;1.02;;;19.50;74.70;;;;;;4983917;28;20038;-92
2022/08/04 10:37:09;;;;;;;2.90;0.82;;;19.60;74.40;;;;;;4988409;28;20145;-92
2022/08/04 10:42:58;;;;;;;4.65;0.73;;;20.20;74.00;;;;;;4999075;28;20053;-91
2022/08/04 10:45:32;;;;;;;4.50;1.00;;;20.60;73.70;;;;;;4966048;28;20041;-91
2022/08/04 10:48:26;;;;;;;2.58;0.82;;;20.80;73.20;;;;;;4993841;28;20029;-92
2022/08/04 10:51:10;;;;;;;2.78;0.45;;;20.90;72.50;;;;;;4986186;28;20090;-92
2022/08/04 10:53:38;;;;;;;2.53;0.85;;;21.10;72.50;;;;;;4992107;28;20098;-92
2022/08/04 10:56:20;;;;;;;2.22;0.60;;;21.30;72.00;;;;;;4992088;28;20066;-91
2022/08/04 10:58:51;;;;;;;4.03;1.05;;;21.40;71.20;;;;;;4997737;28;20015;-92
2022/08/04 11:01:42;;;;;;;3.30;0.70;;;21.40;70.20;;;;;;4997511;28;20034;-92
2022/08/04 11:04:16;;;;;;;8.55;0.80;;;21.60;70.10;;;;;;4988642;28;20014;-93
2022/08/04 11:06:45;;;;;;;2.70;0.55;;;21.70;69.50;;;;;;4998152;28;20041;-93
2022/08/04 11:09:12;;;;;;;3.80;0.80;;;21.50;69.00;;;;;;4998835;28;20034;-92
2022/08/04 11:11:54;;;;;;;3.92;0.70;;;21.20;69.60;;;;;;5016880;28;20022;-91
2022/08/04 11:14:27;;;;;;;1.80;0.60;;;20.80;70.60;;;;;;5015829;28;20019;-91
2022/08/04 11:17:00;;;;;;;2.42;0.60;;;20.60;71.20;;;;;;5016140;28;20029;-90
2022/08/04 11:19:55;;;;;;;2.20;0.60;;;20.50;72.00;;;;;;5017096;28;20074;-92
2022/08/04 11:22:21;;;;;;;1.23;0.40;;;20.40;72.70;;;;;;4987569;28;20022;-91
2022/08/04 11:25:21;;;;;;;5.03;0.50;;;20.30;73.10;;;;;;4995663;28;20033;-91
2022/08/04 11:28:02;;;;;;;1.73;0.65;;;20.30;73.40;;;;;;5012816;28;20026;-90
2022/08/04 11:30:39;;;;;;;1.42;0.57;;;20.40;74.10;;;;;;4994660;28;20024;-92
2022/08/04 11:33:28;;;;;;;0.82;0.35;;;20.50;74.60;;;;;;4985485;28;20078;-91
2022/08/04 11:36:07;;;;;;;4.03;0.73;;;20.70;74.90;;;;;;4977901;28;20081;-93
2022/08/04 11:38:42;;;;;;;3.08;0.80;;;20.80;74.80;;;;;;4984833;28;20026;-92
2022/08/04 11:41:11;;;;;;;1.83;0.60;;;20.70;74.70;;;;;;4987757;28;20018;-92
2022/08/04 11:43:47;;;;;;;0.82;0.40;;;20.80;74.90;;;;;;4989539;28;20074;-91
2022/08/04 11:46:38;;;;;;;0.98;0.40;;;20.90;75.00;;;;;;4991535;28;20027;-91
2022/08/04 11:49:19;;;;;;;4.38;0.47;;;21.10;75.40;;;;;;4996299;28;20031;-92
2022/08/04 11:51:45;;;;;;;;;;;21.20;75.30;;;;;;4993460;28;20034;-93
2022/08/04 11:54:12;;;;;;;2.45;0.55;;;21.20;75.00;;;;;;4990947;28;19929;-91
2022/08/04 11:56:38;;;;;;;1.20;0.57;;;21.00;74.20;;;;;;4967597;28;20030;-91
2022/08/04 11:59:08;;;;;;;2.85;0.50;;;20.80;73.50;;;;;;4991886;28;20036;-91
2022/08/04 12:01:47;;;;;;;4.38;0.60;;;20.60;73.40;;;;;;5000445;28;20023;-90
2022/08/04 12:04:38;;;;;;;4.38;0.60;;;20.80;73.60;;;;;;4998539;28;20027;-90
2022/08/04 12:07:29;;;;;;;1.58;0.38;;;21.10;73.40;;;;;;4997269;28;20049;-90
2022/08/04 12:10:19;;;;;;;2.30;0.55;;;21.40;72.20;;;;;;4993167;28;20026;-90
2022/08/04 12:13:00;;;;;;;0.60;0.40;;;21.30;71.70;;;;;;4988171;28;20030;-93
2022/08/04 12:15:36;;;;;;;2.17;0.50;;;21.10;71.90;;;;;;4983085;28;20046;-91
2022/08/04 12:18:43;;;;;;;2.83;0.50;;;20.80;72.50;;;;;;4983093;28;20106;-92
2022/08/04 12:21:40;;;;;;;6.28;0.63;;;20.70;72.60;;;;;;5000566;28;20117;-90
2022/08/04 12:24:19;;;;;;;3.47;0.70;;;20.80;70.30;;;;;;4979217;28;20057;-94
2022/08/04 12:27:05;;;;;;;2.22;0.40;;;20.70;69.70;;;;;;4980188;28;20026;-92
2022/08/04 12:29:34;;;;;;;3.42;0.40;;;20.80;69.60;;;;;;4984810;28;20070;-92
2022/08/04 12:32:10;;;;;;;2.08;0.43;;;20.80;69.50;;;;;;4978825;28;20038;-92
2022/08/04 12:34:48;;;;;;;2.50;1.02;;;20.80;69.50;;;;;;4984677;28;20551;-93
2022/08/04 12:37:52;;;;;;;2.58;0.47;;;20.70;68.70;;;;;;4981106;28;20057;-91
2022/08/04 12:40:28;;;;;;;3.55;0.50;;;20.60;68.40;;;;;;5002398;28;20058;-91
2022/08/04 12:43:07;;;;;;;3.28;0.50;;;20.50;67.50;;;;;;4985091;28;20050;-90
2022/08/04 12:45:34;;;;;;;3.42;0.20;;;20.40;66.60;;;;;;4985197;28;20018;-91
2022/08/04 12:48:03;;;;;;;2.58;0.50;;;20.30;65.50;;;;;;4984819;28;20026;-92
2022/08/04 12:50:31;;;;;;;2.72;0.40;;;20.30;65.00;;;;;;4984390;28;20031;-90
2022/08/04 12:52:57;;;;;;;3.33;0.43;;;20.40;64.20;;;;;;4984584;28;20026;-90
2022/08/04 12:55:32;;;;;;;1.15;0.30;;;20.70;64.30;;;;;;4984349;28;20034;-90
2022/08/04 12:58:00;;;;;;;2.70;0.50;;;20.80;64.00;;;;;;4988148;28;20047;-93
2022/08/04 13:00:36;;;;;;;2.08;0.52;;;20.80;63.60;;;;;;5009452;28;20211;-91
2022/08/04 13:03:08;;;;;;;2.35;0.70;;;20.70;63.50;;;;;;4992520;28;20042;-92
2022/08/04 13:05:36;;;;;;;1.73;0.55;;;20.70;63.90;;;;;;4984057;28;20034;-91
2022/08/04 13:08:03;;;;;;;2.22;0.40;;;20.80;64.60;;;;;;4982892;28;20030;-91
2022/08/04 13:10:36;;;;;;;2.38;0.57;;;20.80;65.00;;;;;;5002438;28;20122;-93
2022/08/04 13:13:02;;;;;;;0.52;0.30;;;20.80;64.90;;;;;;4983040;28;20023;-91
2022/08/04 13:15:29;;;;;;;0.90;0.35;;;20.80;64.90;;;;;;4985394;28;20045;-92
2022/08/04 13:18:07;;;;;;;5.80;0.85;;;20.80;64.50;;;;;;4984698;28;20046;-91
2022/08/04 13:20:35;;;;;;;2.22;0.70;;;21.10;64.50;;;;;;4988314;28;20019;-94
2022/08/04 13:23:11;;;;;;;3.00;0.80;;;21.50;64.10;;;;;;4987715;28;20077;-94
2022/08/04 13:25:42;;;;;;;1.98;0.57;;;22.00;62.60;;;;;;4987920;28;20060;-91
2022/08/04 13:28:14;;;;;;;3.20;0.68;;;22.40;61.80;;;;;;5002766;28;20092;-92
2022/08/04 13:30:44;;;;;;;2.78;0.60;;;22.50;59.80;;;;;;4991680;28;20046;-91
2022/08/04 13:33:11;;;;;;;2.60;0.60;;;22.60;59.00;;;;;;5006397;28;20023;-91
2022/08/04 13:35:44;;;;;;;4.32;0.68;;;22.70;58.80;;;;;;5007900;28;20511;-91
2022/08/04 13:38:12;;;;;;;1.10;0.32;;;23.00;58.70;;;;;;4988756;28;20030;-93
2022/08/04 13:40:41;;;;;;;1.77;0.57;;;23.10;57.50;;;;;;4988611;28;20058;-91
2022/08/04 13:43:20;;;;;;;1.73;0.60;;;23.00;57.60;;;;;;5002069;28;20050;-92